Terminal Aerodrome Forecast
Issued by NWS

Home | Current Version | Previous Version | Text Only | Print | Product List | Glossary On
Versions: 1 2 3 4 5 6 7 8 9 10 11 12 13 14 15
000
FTUS42 TJSJ 281100
TAFJSJ
TAF
TJSJ 281134Z 2812/2912 VRB04KT P6SM FEW025
     FM281430 07012KT P6SM SCT030
     FM282330 09004KT P6SM FEW030=

USA.gov is the U.S. government's official web portal to all federal, state and local government web resources and services.